sensor_id;sensor_type;location;lat;lon;timestamp;P1;durP1;ratioP1;P2;durP2;ratioP2
36241;SDS011;22283;42.748;12.732;2023-05-19T00:04:14;6.95;;;2.45;;
36241;SDS011;22283;42.748;12.732;2023-05-19T00:09:15;6.07;;;2.75;;
36241;SDS011;22283;42.748;12.732;2023-05-19T00:14:16;8.70;;;2.13;;
36241;SDS011;22283;42.748;12.732;2023-05-19T00:19:17;6.40;;;1.80;;
36241;SDS011;22283;42.748;12.732;2023-05-19T00:24:17;3.47;;;1.80;;
36241;SDS011;22283;42.748;12.732;2023-05-19T00:29:18;5.53;;;1.93;;
36241;SDS011;22283;42.748;12.732;2023-05-19T00:34:19;9.18;;;2.08;;
36241;SDS011;22283;42.748;12.732;2023-05-19T00:39:20;7.47;;;1.90;;
36241;SDS011;22283;42.748;12.732;2023-05-19T00:44:21;2.60;;;1.30;;
36241;SDS011;22283;42.748;12.732;2023-05-19T00:49:21;10.43;;;1.83;;
36241;SDS011;22283;42.748;12.732;2023-05-19T00:54:22;6.13;;;1.75;;
36241;SDS011;22283;42.748;12.732;2023-05-19T00:59:23;8.30;;;1.90;;
36241;SDS011;22283;42.748;12.732;2023-05-19T01:04:24;5.30;;;1.60;;
36241;SDS011;22283;42.748;12.732;2023-05-19T01:09:25;3.67;;;2.10;;
36241;SDS011;22283;42.748;12.732;2023-05-19T01:14:27;5.20;;;1.70;;
36241;SDS011;22283;42.748;12.732;2023-05-19T01:30:36;7.05;;;2.50;;
36241;SDS011;22283;42.748;12.732;2023-05-19T01:35:42;5.53;;;2.05;;
36241;SDS011;22283;42.748;12.732;2023-05-19T01:40:43;5.07;;;1.98;;
36241;SDS011;22283;42.748;12.732;2023-05-19T01:45:46;5.28;;;1.90;;
36241;SDS011;22283;42.748;12.732;2023-05-19T01:50:48;6.10;;;2.47;;
36241;SDS011;22283;42.748;12.732;2023-05-19T01:55:49;4.60;;;2.73;;
36241;SDS011;22283;42.748;12.732;2023-05-19T02:06:06;3.13;;;1.92;;
36241;SDS011;22283;42.748;12.732;2023-05-19T02:11:13;12.25;;;2.60;;
36241;SDS011;22283;42.748;12.732;2023-05-19T02:16:19;4.75;;;2.50;;
36241;SDS011;22283;42.748;12.732;2023-05-19T02:21:26;8.73;;;2.58;;
36241;SDS011;22283;42.748;12.732;2023-05-19T02:26:28;5.22;;;2.10;;
36241;SDS011;22283;42.748;12.732;2023-05-19T02:31:29;3.93;;;2.00;;
36241;SDS011;22283;42.748;12.732;2023-05-19T02:36:32;12.13;;;2.20;;
36241;SDS011;22283;42.748;12.732;2023-05-19T02:41:34;5.43;;;2.13;;
36241;SDS011;22283;42.748;12.732;2023-05-19T02:46:35;4.47;;;2.03;;
36241;SDS011;22283;42.748;12.732;2023-05-19T02:51:35;7.17;;;2.13;;
36241;SDS011;22283;42.748;12.732;2023-05-19T02:56:36;13.57;;;3.37;;
36241;SDS011;22283;42.748;12.732;2023-05-19T03:01:36;6.13;;;3.47;;
36241;SDS011;22283;42.748;12.732;2023-05-19T03:06:39;4.47;;;2.55;;
36241;SDS011;22283;42.748;12.732;2023-05-19T03:11:41;4.80;;;2.75;;
36241;SDS011;22283;42.748;12.732;2023-05-19T03:16:42;4.03;;;2.43;;
36241;SDS011;22283;42.748;12.732;2023-05-19T03:21:42;4.47;;;2.37;;
36241;SDS011;22283;42.748;12.732;2023-05-19T03:26:43;5.83;;;2.50;;
36241;SDS011;22283;42.748;12.732;2023-05-19T03:31:44;5.10;;;2.50;;
36241;SDS011;22283;42.748;12.732;2023-05-19T03:36:46;6.15;;;3.60;;
36241;SDS011;22283;42.748;12.732;2023-05-19T03:41:50;3.28;;;2.47;;
36241;SDS011;22283;42.748;12.732;2023-05-19T03:46:50;5.87;;;2.50;;
36241;SDS011;22283;42.748;12.732;2023-05-19T03:52:17;4.57;;;3.05;;
36241;SDS011;22283;42.748;12.732;2023-05-19T03:57:41;4.88;;;2.40;;
36241;SDS011;22283;42.748;12.732;2023-05-19T04:02:43;4.13;;;2.90;;
36241;SDS011;22283;42.748;12.732;2023-05-19T04:07:44;4.57;;;2.83;;
36241;SDS011;22283;42.748;12.732;2023-05-19T04:12:46;5.85;;;3.88;;
36241;SDS011;22283;42.748;12.732;2023-05-19T04:17:49;8.85;;;4.45;;
36241;SDS011;22283;42.748;12.732;2023-05-19T04:22:49;5.73;;;3.93;;
36241;SDS011;22283;42.748;12.732;2023-05-19T04:27:50;5.73;;;4.07;;
36241;SDS011;22283;42.748;12.732;2023-05-19T04:32:52;10.98;;;5.43;;
36241;SDS011;22283;42.748;12.732;2023-05-19T04:37:53;8.82;;;5.88;;
36241;SDS011;22283;42.748;12.732;2023-05-19T04:42:59;6.60;;;4.85;;
36241;SDS011;22283;42.748;12.732;2023-05-19T04:48:02;11.20;;;4.90;;
36241;SDS011;22283;42.748;12.732;2023-05-19T04:53:03;11.52;;;6.30;;
36241;SDS011;22283;42.748;12.732;2023-05-19T04:58:04;11.20;;;5.50;;
36241;SDS011;22283;42.748;12.732;2023-05-19T05:03:06;10.65;;;4.88;;
36241;SDS011;22283;42.748;12.732;2023-05-19T05:08:08;9.70;;;4.70;;
36241;SDS011;22283;42.748;12.732;2023-05-19T05:13:14;10.00;;;5.10;;
36241;SDS011;22283;42.748;12.732;2023-05-19T05:18:16;9.02;;;5.20;;
36241;SDS011;22283;42.748;12.732;2023-05-19T05:23:17;7.88;;;3.97;;
36241;SDS011;22283;42.748;12.732;2023-05-19T05:28:20;8.77;;;4.35;;
36241;SDS011;22283;42.748;12.732;2023-05-19T05:33:21;9.68;;;4.25;;
36241;SDS011;22283;42.748;12.732;2023-05-19T05:38:24;24.25;;;4.93;;
36241;SDS011;22283;42.748;12.732;2023-05-19T05:43:25;6.32;;;4.20;;
36241;SDS011;22283;42.748;12.732;2023-05-19T05:48:31;13.07;;;4.75;;
36241;SDS011;22283;42.748;12.732;2023-05-19T05:53:33;7.43;;;4.38;;
36241;SDS011;22283;42.748;12.732;2023-05-19T05:58:39;6.32;;;4.22;;
36241;SDS011;22283;42.748;12.732;2023-05-19T06:03:40;9.32;;;3.92;;
36241;SDS011;22283;42.748;12.732;2023-05-19T06:08:46;8.55;;;4.53;;
36241;SDS011;22283;42.748;12.732;2023-05-19T06:13:47;12.90;;;4.80;;
36241;SDS011;22283;42.748;12.732;2023-05-19T06:19:01;9.63;;;5.28;;
36241;SDS011;22283;42.748;12.732;2023-05-19T06:24:02;11.98;;;5.47;;
36241;SDS011;22283;42.748;12.732;2023-05-19T06:29:02;8.97;;;4.70;;
36241;SDS011;22283;42.748;12.732;2023-05-19T06:34:04;10.85;;;4.80;;
36241;SDS011;22283;42.748;12.732;2023-05-19T06:39:05;8.32;;;4.47;;
36241;SDS011;22283;42.748;12.732;2023-05-19T06:44:06;7.50;;;4.93;;
36241;SDS011;22283;42.748;12.732;2023-05-19T06:49:10;10.45;;;3.97;;
36241;SDS011;22283;42.748;12.732;2023-05-19T06:54:15;9.48;;;5.47;;
36241;SDS011;22283;42.748;12.732;2023-05-19T06:59:15;12.97;;;5.67;;
36241;SDS011;22283;42.748;12.732;2023-05-19T07:04:18;9.40;;;6.65;;
36241;SDS011;22283;42.748;12.732;2023-05-19T07:09:18;12.07;;;6.10;;
36241;SDS011;22283;42.748;12.732;2023-05-19T07:19:20;9.82;;;6.20;;
36241;SDS011;22283;42.748;12.732;2023-05-19T07:24:23;9.85;;;5.85;;
36241;SDS011;22283;42.748;12.732;2023-05-19T07:29:24;9.07;;;5.78;;
36241;SDS011;22283;42.748;12.732;2023-05-19T07:34:25;11.57;;;5.75;;
36241;SDS011;22283;42.748;12.732;2023-05-19T07:39:26;8.77;;;5.17;;
36241;SDS011;22283;42.748;12.732;2023-05-19T07:44:28;11.07;;;5.88;;
36241;SDS011;22283;42.748;12.732;2023-05-19T07:49:30;12.25;;;5.68;;
36241;SDS011;22283;42.748;12.732;2023-05-19T07:54:31;10.43;;;6.20;;
36241;SDS011;22283;42.748;12.732;2023-05-19T07:59:31;10.80;;;6.83;;
36241;SDS011;22283;42.748;12.732;2023-05-19T08:04:32;8.20;;;6.33;;
36241;SDS011;22283;42.748;12.732;2023-05-19T08:09:33;8.77;;;6.30;;
36241;SDS011;22283;42.748;12.732;2023-05-19T08:14:33;7.47;;;5.73;;
36241;SDS011;22283;42.748;12.732;2023-05-19T08:19:34;7.13;;;6.03;;
36241;SDS011;22283;42.748;12.732;2023-05-19T08:24:35;7.87;;;6.07;;
36241;SDS011;22283;42.748;12.732;2023-05-19T08:29:36;18.92;;;8.18;;
36241;SDS011;22283;42.748;12.732;2023-05-19T08:34:37;9.38;;;6.45;;
36241;SDS011;22283;42.748;12.732;2023-05-19T08:39:38;10.03;;;6.67;;
36241;SDS011;22283;42.748;12.732;2023-05-19T08:44:38;8.43;;;5.10;;
36241;SDS011;22283;42.748;12.732;2023-05-19T08:49:44;6.80;;;5.20;;
36241;SDS011;22283;42.748;12.732;2023-05-19T08:54:52;8.18;;;5.07;;
36241;SDS011;22283;42.748;12.732;2023-05-19T09:00:06;5.72;;;3.90;;
36241;SDS011;22283;42.748;12.732;2023-05-19T09:05:14;5.90;;;3.38;;
36241;SDS011;22283;42.748;12.732;2023-05-19T09:10:16;4.20;;;3.50;;
36241;SDS011;22283;42.748;12.732;2023-05-19T09:15:17;5.47;;;3.47;;
36241;SDS011;22283;42.748;12.732;2023-05-19T09:20:18;3.33;;;3.00;;
36241;SDS011;22283;42.748;12.732;2023-05-19T09:25:20;5.30;;;3.50;;
36241;SDS011;22283;42.748;12.732;2023-05-19T09:30:22;4.15;;;3.00;;
36241;SDS011;22283;42.748;12.732;2023-05-19T09:40:26;4.28;;;2.63;;
36241;SDS011;22283;42.748;12.732;2023-05-19T09:45:27;3.83;;;2.92;;
36241;SDS011;22283;42.748;12.732;2023-05-19T09:50:31;8.98;;;3.05;;
36241;SDS011;22283;42.748;12.732;2023-05-19T09:55:33;11.85;;;3.83;;
36241;SDS011;22283;42.748;12.732;2023-05-19T10:05:34;9.73;;;2.60;;
36241;SDS011;22283;42.748;12.732;2023-05-19T10:10:36;5.50;;;2.67;;
36241;SDS011;22283;42.748;12.732;2023-05-19T10:15:37;3.00;;;2.33;;
36241;SDS011;22283;42.748;12.732;2023-05-19T10:20:40;3.17;;;2.10;;
36241;SDS011;22283;42.748;12.732;2023-05-19T10:25:41;26.35;;;3.10;;
36241;SDS011;22283;42.748;12.732;2023-05-19T10:30:43;22.95;;;4.40;;
36241;SDS011;22283;42.748;12.732;2023-05-19T10:41:09;6.55;;;2.58;;
36241;SDS011;22283;42.748;12.732;2023-05-19T10:46:13;10.23;;;3.00;;
36241;SDS011;22283;42.748;12.732;2023-05-19T10:51:13;13.15;;;4.18;;
36241;SDS011;22283;42.748;12.732;2023-05-19T10:56:33;9.25;;;3.42;;
36241;SDS011;22283;42.748;12.732;2023-05-19T11:01:35;6.07;;;3.03;;
36241;SDS011;22283;42.748;12.732;2023-05-19T11:06:37;6.78;;;4.25;;
36241;SDS011;22283;42.748;12.732;2023-05-19T11:16:48;5.68;;;2.97;;
36241;SDS011;22283;42.748;12.732;2023-05-19T11:21:50;9.90;;;6.20;;
36241;SDS011;22283;42.748;12.732;2023-05-19T11:26:54;6.00;;;4.75;;
36241;SDS011;22283;42.748;12.732;2023-05-19T11:31:54;13.77;;;6.63;;
36241;SDS011;22283;42.748;12.732;2023-05-19T11:36:55;12.18;;;5.63;;
36241;SDS011;22283;42.748;12.732;2023-05-19T11:46:57;10.63;;;4.18;;
36241;SDS011;22283;42.748;12.732;2023-05-19T11:51:59;5.40;;;4.00;;
36241;SDS011;22283;42.748;12.732;2023-05-19T11:57:04;7.15;;;4.00;;
36241;SDS011;22283;42.748;12.732;2023-05-19T12:07:17;6.57;;;3.97;;
36241;SDS011;22283;42.748;12.732;2023-05-19T12:12:19;6.85;;;3.15;;
36241;SDS011;22283;42.748;12.732;2023-05-19T12:17:20;4.00;;;2.55;;
36241;SDS011;22283;42.748;12.732;2023-05-19T12:22:23;4.22;;;2.33;;
36241;SDS011;22283;42.748;12.732;2023-05-19T12:32:28;4.95;;;3.50;;
36241;SDS011;22283;42.748;12.732;2023-05-19T12:37:29;4.35;;;3.38;;
36241;SDS011;22283;42.748;12.732;2023-05-19T12:42:29;5.07;;;3.50;;
36241;SDS011;22283;42.748;12.732;2023-05-19T12:47:31;7.22;;;3.97;;
36241;SDS011;22283;42.748;12.732;2023-05-19T12:52:41;7.10;;;4.30;;
36241;SDS011;22283;42.748;12.732;2023-05-19T12:57:46;5.40;;;4.47;;
36241;SDS011;22283;42.748;12.732;2023-05-19T13:03:01;8.38;;;6.05;;
36241;SDS011;22283;42.748;12.732;2023-05-19T13:08:06;7.15;;;5.32;;
36241;SDS011;22283;42.748;12.732;2023-05-19T13:13:11;7.57;;;5.15;;
36241;SDS011;22283;42.748;12.732;2023-05-19T13:18:13;7.32;;;5.28;;
36241;SDS011;22283;42.748;12.732;2023-05-19T13:23:14;8.55;;;6.38;;
36241;SDS011;22283;42.748;12.732;2023-05-19T13:33:15;10.10;;;5.10;;
36241;SDS011;22283;42.748;12.732;2023-05-19T13:38:16;6.97;;;4.63;;
36241;SDS011;22283;42.748;12.732;2023-05-19T13:43:17;7.25;;;4.95;;
36241;SDS011;22283;42.748;12.732;2023-05-19T13:48:17;9.05;;;6.10;;
36241;SDS011;22283;42.748;12.732;2023-05-19T13:53:18;6.07;;;4.60;;
36241;SDS011;22283;42.748;12.732;2023-05-19T13:58:19;10.25;;;5.68;;
36241;SDS011;22283;42.748;12.732;2023-05-19T14:03:20;11.25;;;5.22;;
36241;SDS011;22283;42.748;12.732;2023-05-19T14:08:20;13.48;;;5.10;;
36241;SDS011;22283;42.748;12.732;2023-05-19T14:13:21;9.85;;;5.30;;
36241;SDS011;22283;42.748;12.732;2023-05-19T14:23:23;14.43;;;5.93;;
36241;SDS011;22283;42.748;12.732;2023-05-19T14:28:23;8.77;;;4.82;;
36241;SDS011;22283;42.748;12.732;2023-05-19T14:33:24;11.25;;;4.85;;
36241;SDS011;22283;42.748;12.732;2023-05-19T14:43:25;9.07;;;4.90;;
36241;SDS011;22283;42.748;12.732;2023-05-19T14:48:26;12.30;;;5.85;;
36241;SDS011;22283;42.748;12.732;2023-05-19T14:58:28;9.55;;;5.78;;
36241;SDS011;22283;42.748;12.732;2023-05-19T15:08:28;9.57;;;4.95;;
36241;SDS011;22283;42.748;12.732;2023-05-19T15:18:30;4.95;;;3.70;;
36241;SDS011;22283;42.748;12.732;2023-05-19T15:28:31;8.73;;;3.45;;
36241;SDS011;22283;42.748;12.732;2023-05-19T15:33:32;8.43;;;3.33;;
36241;SDS011;22283;42.748;12.732;2023-05-19T15:38:34;18.05;;;3.00;;
36241;SDS011;22283;42.748;12.732;2023-05-19T15:43:35;6.60;;;2.75;;
36241;SDS011;22283;42.748;12.732;2023-05-19T15:48:35;6.35;;;2.38;;
36241;SDS011;22283;42.748;12.732;2023-05-19T15:53:36;9.15;;;2.75;;
36241;SDS011;22283;42.748;12.732;2023-05-19T15:58:37;8.13;;;2.33;;
36241;SDS011;22283;42.748;12.732;2023-05-19T16:03:37;4.40;;;2.20;;
36241;SDS011;22283;42.748;12.732;2023-05-19T16:08:38;8.40;;;2.78;;
36241;SDS011;22283;42.748;12.732;2023-05-19T16:13:39;6.25;;;2.90;;
36241;SDS011;22283;42.748;12.732;2023-05-19T16:18:39;14.33;;;3.47;;
36241;SDS011;22283;42.748;12.732;2023-05-19T16:23:40;9.37;;;2.50;;
36241;SDS011;22283;42.748;12.732;2023-05-19T16:28:40;8.25;;;2.60;;
36241;SDS011;22283;42.748;12.732;2023-05-19T16:33:41;5.85;;;3.08;;
36241;SDS011;22283;42.748;12.732;2023-05-19T16:38:41;8.13;;;2.70;;
36241;SDS011;22283;42.748;12.732;2023-05-19T16:43:42;11.25;;;3.80;;
36241;SDS011;22283;42.748;12.732;2023-05-19T16:48:42;7.35;;;3.47;;
36241;SDS011;22283;42.748;12.732;2023-05-19T16:53:43;8.60;;;3.05;;
36241;SDS011;22283;42.748;12.732;2023-05-19T16:58:44;8.98;;;3.30;;
36241;SDS011;22283;42.748;12.732;2023-05-19T17:03:44;7.82;;;3.17;;
36241;SDS011;22283;42.748;12.732;2023-05-19T17:08:45;13.93;;;3.95;;
36241;SDS011;22283;42.748;12.732;2023-05-19T17:13:46;11.43;;;3.63;;
36241;SDS011;22283;42.748;12.732;2023-05-19T17:18:46;11.65;;;3.35;;
36241;SDS011;22283;42.748;12.732;2023-05-19T17:23:47;15.15;;;4.03;;
36241;SDS011;22283;42.748;12.732;2023-05-19T17:28:48;10.10;;;3.75;;
36241;SDS011;22283;42.748;12.732;2023-05-19T17:33:49;5.93;;;3.80;;
36241;SDS011;22283;42.748;12.732;2023-05-19T17:38:50;9.80;;;3.22;;
36241;SDS011;22283;42.748;12.732;2023-05-19T17:43:51;13.35;;;4.20;;
36241;SDS011;22283;42.748;12.732;2023-05-19T17:48:51;12.67;;;6.57;;
36241;SDS011;22283;42.748;12.732;2023-05-19T17:53:52;14.13;;;8.30;;
36241;SDS011;22283;42.748;12.732;2023-05-19T17:58:53;20.25;;;4.97;;
36241;SDS011;22283;42.748;12.732;2023-05-19T18:03:53;19.42;;;5.05;;
36241;SDS011;22283;42.748;12.732;2023-05-19T18:08:54;21.25;;;12.25;;
36241;SDS011;22283;42.748;12.732;2023-05-19T18:13:58;8.32;;;4.57;;
36241;SDS011;22283;42.748;12.732;2023-05-19T18:19:04;21.27;;;6.18;;
36241;SDS011;22283;42.748;12.732;2023-05-19T18:24:05;20.60;;;6.83;;
36241;SDS011;22283;42.748;12.732;2023-05-19T18:29:09;11.20;;;5.60;;
36241;SDS011;22283;42.748;12.732;2023-05-19T18:34:10;10.25;;;5.05;;
36241;SDS011;22283;42.748;12.732;2023-05-19T18:39:11;7.88;;;4.72;;
36241;SDS011;22283;42.748;12.732;2023-05-19T18:44:12;17.70;;;6.30;;
36241;SDS011;22283;42.748;12.732;2023-05-19T18:49:12;21.58;;;5.25;;
36241;SDS011;22283;42.748;12.732;2023-05-19T18:54:13;21.20;;;6.30;;
36241;SDS011;22283;42.748;12.732;2023-05-19T18:59:14;23.30;;;6.70;;
36241;SDS011;22283;42.748;12.732;2023-05-19T19:04:14;32.17;;;7.80;;
36241;SDS011;22283;42.748;12.732;2023-05-19T19:09:16;20.55;;;7.45;;
36241;SDS011;22283;42.748;12.732;2023-05-19T19:14:17;19.77;;;4.90;;
36241;SDS011;22283;42.748;12.732;2023-05-19T19:24:19;19.17;;;6.10;;
36241;SDS011;22283;42.748;12.732;2023-05-19T19:29:20;14.68;;;6.75;;
36241;SDS011;22283;42.748;12.732;2023-05-19T19:34:21;19.87;;;5.33;;
36241;SDS011;22283;42.748;12.732;2023-05-19T19:39:22;20.73;;;5.93;;
36241;SDS011;22283;42.748;12.732;2023-05-19T19:44:23;7.70;;;4.53;;
36241;SDS011;22283;42.748;12.732;2023-05-19T19:49:23;11.80;;;4.73;;
36241;SDS011;22283;42.748;12.732;2023-05-19T19:54:24;14.30;;;5.03;;
36241;SDS011;22283;42.748;12.732;2023-05-19T19:59:24;8.30;;;4.60;;
36241;SDS011;22283;42.748;12.732;2023-05-19T20:04:25;8.50;;;4.50;;
36241;SDS011;22283;42.748;12.732;2023-05-19T20:09:26;12.95;;;5.00;;
36241;SDS011;22283;42.748;12.732;2023-05-19T20:14:27;21.70;;;6.63;;
36241;SDS011;22283;42.748;12.732;2023-05-19T20:19:28;8.33;;;5.63;;
36241;SDS011;22283;42.748;12.732;2023-05-19T20:24:28;14.77;;;7.17;;
36241;SDS011;22283;42.748;12.732;2023-05-19T20:29:29;14.23;;;5.20;;
36241;SDS011;22283;42.748;12.732;2023-05-19T20:34:29;11.83;;;5.20;;
36241;SDS011;22283;42.748;12.732;2023-05-19T20:39:30;17.37;;;4.20;;
36241;SDS011;22283;42.748;12.732;2023-05-19T20:44:34;11.13;;;4.30;;
36241;SDS011;22283;42.748;12.732;2023-05-19T20:49:49;7.63;;;3.47;;
36241;SDS011;22283;42.748;12.732;2023-05-19T20:54:49;23.50;;;5.20;;
36241;SDS011;22283;42.748;12.732;2023-05-19T20:59:50;12.80;;;5.30;;
36241;SDS011;22283;42.748;12.732;2023-05-19T21:04:50;11.27;;;4.93;;
36241;SDS011;22283;42.748;12.732;2023-05-19T21:09:51;13.53;;;3.63;;
36241;SDS011;22283;42.748;12.732;2023-05-19T21:14:53;6.25;;;3.67;;
36241;SDS011;22283;42.748;12.732;2023-05-19T21:19:54;14.03;;;4.30;;
36241;SDS011;22283;42.748;12.732;2023-05-19T21:24:57;12.82;;;5.55;;
36241;SDS011;22283;42.748;12.732;2023-05-19T21:29:57;13.13;;;4.07;;
36241;SDS011;22283;42.748;12.732;2023-05-19T21:34:58;10.75;;;3.67;;
36241;SDS011;22283;42.748;12.732;2023-05-19T21:45:00;12.95;;;4.18;;
36241;SDS011;22283;42.748;12.732;2023-05-19T21:50:01;14.37;;;4.37;;
36241;SDS011;22283;42.748;12.732;2023-05-19T21:55:02;8.87;;;3.67;;
36241;SDS011;22283;42.748;12.732;2023-05-19T22:00:03;7.20;;;3.38;;
36241;SDS011;22283;42.748;12.732;2023-05-19T22:05:11;9.70;;;3.70;;
36241;SDS011;22283;42.748;12.732;2023-05-19T22:10:12;14.97;;;4.57;;
36241;SDS011;22283;42.748;12.732;2023-05-19T22:15:13;11.87;;;3.83;;
36241;SDS011;22283;42.748;12.732;2023-05-19T22:20:14;18.15;;;4.68;;
36241;SDS011;22283;42.748;12.732;2023-05-19T22:25:15;10.53;;;4.13;;
36241;SDS011;22283;42.748;12.732;2023-05-19T22:30:16;10.77;;;4.47;;
36241;SDS011;22283;42.748;12.732;2023-05-19T22:35:17;10.67;;;4.90;;
36241;SDS011;22283;42.748;12.732;2023-05-19T22:40:18;10.63;;;4.55;;
36241;SDS011;22283;42.748;12.732;2023-05-19T22:45:18;17.97;;;4.77;;
36241;SDS011;22283;42.748;12.732;2023-05-19T22:50:19;9.20;;;4.40;;
36241;SDS011;22283;42.748;12.732;2023-05-19T22:55:20;10.50;;;4.13;;
36241;SDS011;22283;42.748;12.732;2023-05-19T23:00:21;10.47;;;4.73;;
36241;SDS011;22283;42.748;12.732;2023-05-19T23:05:22;11.07;;;4.90;;
36241;SDS011;22283;42.748;12.732;2023-05-19T23:10:22;14.93;;;5.53;;
36241;SDS011;22283;42.748;12.732;2023-05-19T23:15:23;15.93;;;5.00;;
36241;SDS011;22283;42.748;12.732;2023-05-19T23:20:24;10.13;;;5.00;;
36241;SDS011;22283;42.748;12.732;2023-05-19T23:25:24;14.37;;;5.20;;
36241;SDS011;22283;42.748;12.732;2023-05-19T23:30:25;13.67;;;5.67;;
36241;SDS011;22283;42.748;12.732;2023-05-19T23:35:27;8.90;;;4.63;;
36241;SDS011;22283;42.748;12.732;2023-05-19T23:40:28;12.80;;;5.33;;
36241;SDS011;22283;42.748;12.732;2023-05-19T23:45:29;9.23;;;4.90;;
36241;SDS011;22283;42.748;12.732;2023-05-19T23:50:29;10.60;;;6.10;;
36241;SDS011;22283;42.748;12.732;2023-05-19T23:55:30;9.87;;;5.27;;
